sensor_id;sensor_type;location;lat;lon;timestamp;P1;durP1;ratioP1;P2;durP2;ratioP2
70715;SDS011;59053;50.832;12.882;2022-11-27T00:01:35;41.67;;;18.10;;
70715;SDS011;59053;50.832;12.882;2022-11-27T00:04:09;39.53;;;16.58;;
70715;SDS011;59053;50.832;12.882;2022-11-27T00:06:36;41.08;;;17.02;;
70715;SDS011;59053;50.832;12.882;2022-11-27T00:09:03;42.28;;;17.50;;
70715;SDS011;59053;50.832;12.882;2022-11-27T00:11:29;40.77;;;16.87;;
70715;SDS011;59053;50.832;12.882;2022-11-27T00:13:54;41.58;;;17.27;;
70715;SDS011;59053;50.832;12.882;2022-11-27T00:16:20;43.07;;;18.30;;
70715;SDS011;59053;50.832;12.882;2022-11-27T00:18:45;41.30;;;17.57;;
70715;SDS011;59053;50.832;12.882;2022-11-27T00:24:11;40.07;;;16.90;;
70715;SDS011;59053;50.832;12.882;2022-11-27T00:26:37;41.33;;;17.15;;
70715;SDS011;59053;50.832;12.882;2022-11-27T00:29:02;46.17;;;18.50;;
70715;SDS011;59053;50.832;12.882;2022-11-27T00:31:28;41.23;;;17.23;;
70715;SDS011;59053;50.832;12.882;2022-11-27T00:33:55;42.70;;;16.80;;
70715;SDS011;59053;50.832;12.882;2022-11-27T00:39:08;43.47;;;17.02;;
70715;SDS011;59053;50.832;12.882;2022-11-27T00:41:34;38.33;;;16.07;;
70715;SDS011;59053;50.832;12.882;2022-11-27T00:43:59;37.67;;;16.07;;
70715;SDS011;59053;50.832;12.882;2022-11-27T00:46:26;40.93;;;16.50;;
70715;SDS011;59053;50.832;12.882;2022-11-27T00:48:51;38.22;;;16.13;;
70715;SDS011;59053;50.832;12.882;2022-11-27T00:51:17;43.30;;;16.07;;
70715;SDS011;59053;50.832;12.882;2022-11-27T00:53:43;37.00;;;16.33;;
70715;SDS011;59053;50.832;12.882;2022-11-27T00:56:09;40.93;;;16.07;;
70715;SDS011;59053;50.832;12.882;2022-11-27T00:58:35;38.92;;;16.33;;
70715;SDS011;59053;50.832;12.882;2022-11-27T01:01:03;42.90;;;17.20;;
70715;SDS011;59053;50.832;12.882;2022-11-27T01:03:28;47.87;;;17.87;;
70715;SDS011;59053;50.832;12.882;2022-11-27T01:05:54;45.92;;;17.52;;
70715;SDS011;59053;50.832;12.882;2022-11-27T01:08:19;41.37;;;17.60;;
70715;SDS011;59053;50.832;12.882;2022-11-27T01:10:51;49.23;;;19.93;;
70715;SDS011;59053;50.832;12.882;2022-11-27T01:13:17;50.90;;;19.58;;
70715;SDS011;59053;50.832;12.882;2022-11-27T01:15:43;49.00;;;19.27;;
70715;SDS011;59053;50.832;12.882;2022-11-27T01:18:09;51.42;;;19.83;;
70715;SDS011;59053;50.832;12.882;2022-11-27T01:20:38;44.33;;;18.80;;
70715;SDS011;59053;50.832;12.882;2022-11-27T01:23:04;45.10;;;19.30;;
70715;SDS011;59053;50.832;12.882;2022-11-27T01:25:29;49.45;;;17.23;;
70715;SDS011;59053;50.832;12.882;2022-11-27T01:27:56;41.70;;;17.33;;
70715;SDS011;59053;50.832;12.882;2022-11-27T01:30:23;40.72;;;16.40;;
70715;SDS011;59053;50.832;12.882;2022-11-27T01:32:49;38.95;;;16.45;;
70715;SDS011;59053;50.832;12.882;2022-11-27T01:35:14;39.88;;;15.60;;
70715;SDS011;59053;50.832;12.882;2022-11-27T01:37:39;41.50;;;14.87;;
70715;SDS011;59053;50.832;12.882;2022-11-27T01:40:05;34.27;;;14.87;;
70715;SDS011;59053;50.832;12.882;2022-11-27T01:42:30;36.67;;;15.33;;
70715;SDS011;59053;50.832;12.882;2022-11-27T01:44:56;42.10;;;15.47;;
70715;SDS011;59053;50.832;12.882;2022-11-27T01:47:31;36.88;;;15.15;;
70715;SDS011;59053;50.832;12.882;2022-11-27T01:50:02;37.43;;;14.67;;
70715;SDS011;59053;50.832;12.882;2022-11-27T01:52:30;36.58;;;14.52;;
70715;SDS011;59053;50.832;12.882;2022-11-27T01:54:58;35.05;;;15.13;;
70715;SDS011;59053;50.832;12.882;2022-11-27T02:00:53;38.38;;;13.98;;
70715;SDS011;59053;50.832;12.882;2022-11-27T02:03:19;39.40;;;15.03;;
70715;SDS011;59053;50.832;12.882;2022-11-27T02:05:44;40.13;;;15.87;;
70715;SDS011;59053;50.832;12.882;2022-11-27T02:08:10;38.50;;;16.10;;
70715;SDS011;59053;50.832;12.882;2022-11-27T02:10:43;41.97;;;17.77;;
70715;SDS011;59053;50.832;12.882;2022-11-27T02:13:12;56.75;;;21.88;;
70715;SDS011;59053;50.832;12.882;2022-11-27T02:18:30;50.70;;;19.85;;
70715;SDS011;59053;50.832;12.882;2022-11-27T02:20:56;52.70;;;20.95;;
70715;SDS011;59053;50.832;12.882;2022-11-27T02:23:40;46.50;;;19.20;;
70715;SDS011;59053;50.832;12.882;2022-11-27T02:26:17;44.20;;;18.50;;
70715;SDS011;59053;50.832;12.882;2022-11-27T02:31:30;38.83;;;15.18;;
70715;SDS011;59053;50.832;12.882;2022-11-27T02:34:00;43.50;;;16.00;;
70715;SDS011;59053;50.832;12.882;2022-11-27T02:36:28;40.17;;;14.68;;
70715;SDS011;59053;50.832;12.882;2022-11-27T02:38:55;47.05;;;16.67;;
70715;SDS011;59053;50.832;12.882;2022-11-27T02:41:24;48.13;;;16.37;;
70715;SDS011;59053;50.832;12.882;2022-11-27T02:43:50;45.63;;;16.70;;
70715;SDS011;59053;50.832;12.882;2022-11-27T02:46:16;47.08;;;17.38;;
70715;SDS011;59053;50.832;12.882;2022-11-27T02:48:44;41.45;;;16.98;;
70715;SDS011;59053;50.832;12.882;2022-11-27T02:51:25;39.05;;;15.30;;
70715;SDS011;59053;50.832;12.882;2022-11-27T02:53:52;41.72;;;15.35;;
70715;SDS011;59053;50.832;12.882;2022-11-27T02:56:19;43.42;;;14.75;;
70715;SDS011;59053;50.832;12.882;2022-11-27T02:58:46;44.33;;;15.10;;
70715;SDS011;59053;50.832;12.882;2022-11-27T03:01:12;39.53;;;14.75;;
70715;SDS011;59053;50.832;12.882;2022-11-27T03:03:40;36.85;;;13.98;;
70715;SDS011;59053;50.832;12.882;2022-11-27T03:06:08;34.25;;;13.27;;
70715;SDS011;59053;50.832;12.882;2022-11-27T03:08:37;35.10;;;13.05;;
70715;SDS011;59053;50.832;12.882;2022-11-27T03:11:04;40.10;;;14.93;;
70715;SDS011;59053;50.832;12.882;2022-11-27T03:13:30;43.65;;;16.55;;
70715;SDS011;59053;50.832;12.882;2022-11-27T03:20:56;46.90;;;17.48;;
70715;SDS011;59053;50.832;12.882;2022-11-27T03:23:26;38.55;;;15.40;;
70715;SDS011;59053;50.832;12.882;2022-11-27T03:25:52;42.33;;;15.90;;
70715;SDS011;59053;50.832;12.882;2022-11-27T03:28:18;44.55;;;15.90;;
70715;SDS011;59053;50.832;12.882;2022-11-27T03:30:43;34.47;;;13.47;;
70715;SDS011;59053;50.832;12.882;2022-11-27T03:33:08;33.90;;;14.13;;
70715;SDS011;59053;50.832;12.882;2022-11-27T03:35:34;39.10;;;14.13;;
70715;SDS011;59053;50.832;12.882;2022-11-27T03:37:59;32.57;;;12.83;;
70715;SDS011;59053;50.832;12.882;2022-11-27T03:41:08;34.03;;;13.10;;
70715;SDS011;59053;50.832;12.882;2022-11-27T03:43:13;38.67;;;13.07;;
70715;SDS011;59053;50.832;12.882;2022-11-27T03:45:48;33.30;;;12.93;;
70715;SDS011;59053;50.832;12.882;2022-11-27T03:48:23;33.83;;;13.30;;
70715;SDS011;59053;50.832;12.882;2022-11-27T03:58:46;36.28;;;12.55;;
70715;SDS011;59053;50.832;12.882;2022-11-27T04:01:16;29.27;;;12.02;;
70715;SDS011;59053;50.832;12.882;2022-11-27T04:03:42;34.70;;;12.45;;
70715;SDS011;59053;50.832;12.882;2022-11-27T04:06:10;32.87;;;12.60;;
70715;SDS011;59053;50.832;12.882;2022-11-27T04:12:15;30.77;;;11.55;;
70715;SDS011;59053;50.832;12.882;2022-11-27T04:14:41;31.40;;;11.63;;
70715;SDS011;59053;50.832;12.882;2022-11-27T04:17:06;35.60;;;12.20;;
70715;SDS011;59053;50.832;12.882;2022-11-27T04:19:32;25.40;;;11.23;;
70715;SDS011;59053;50.832;12.882;2022-11-27T04:21:57;32.00;;;12.37;;
70715;SDS011;59053;50.832;12.882;2022-11-27T04:24:22;29.13;;;11.43;;
70715;SDS011;59053;50.832;12.882;2022-11-27T04:26:48;35.70;;;12.30;;
70715;SDS011;59053;50.832;12.882;2022-11-27T04:29:13;30.90;;;11.67;;
70715;SDS011;59053;50.832;12.882;2022-11-27T04:31:38;29.88;;;11.13;;
70715;SDS011;59053;50.832;12.882;2022-11-27T04:34:03;29.33;;;10.85;;
70715;SDS011;59053;50.832;12.882;2022-11-27T04:36:29;28.33;;;11.23;;
70715;SDS011;59053;50.832;12.882;2022-11-27T04:38:54;30.77;;;10.80;;
70715;SDS011;59053;50.832;12.882;2022-11-27T04:41:19;30.07;;;11.23;;
70715;SDS011;59053;50.832;12.882;2022-11-27T04:43:45;34.53;;;13.13;;
70715;SDS011;59053;50.832;12.882;2022-11-27T04:46:28;30.03;;;11.63;;
70715;SDS011;59053;50.832;12.882;2022-11-27T04:54:33;31.75;;;11.75;;
70715;SDS011;59053;50.832;12.882;2022-11-27T05:03:54;29.17;;;9.48;;
70715;SDS011;59053;50.832;12.882;2022-11-27T05:06:20;21.00;;;9.20;;
70715;SDS011;59053;50.832;12.882;2022-11-27T05:08:46;22.37;;;9.77;;
70715;SDS011;59053;50.832;12.882;2022-11-27T05:11:12;25.03;;;9.53;;
70715;SDS011;59053;50.832;12.882;2022-11-27T05:13:45;26.02;;;9.25;;
70715;SDS011;59053;50.832;12.882;2022-11-27T05:16:11;29.02;;;9.70;;
70715;SDS011;59053;50.832;12.882;2022-11-27T05:21:38;23.42;;;8.35;;
70715;SDS011;59053;50.832;12.882;2022-11-27T05:24:04;22.90;;;8.23;;
70715;SDS011;59053;50.832;12.882;2022-11-27T05:26:32;21.95;;;8.48;;
70715;SDS011;59053;50.832;12.882;2022-11-27T05:28:57;22.70;;;8.70;;
70715;SDS011;59053;50.832;12.882;2022-11-27T05:34:27;20.60;;;8.00;;
70715;SDS011;59053;50.832;12.882;2022-11-27T05:45:22;25.35;;;9.45;;
70715;SDS011;59053;50.832;12.882;2022-11-27T05:47:47;25.97;;;8.97;;
70715;SDS011;59053;50.832;12.882;2022-11-27T05:50:19;26.47;;;9.17;;
70715;SDS011;59053;50.832;12.882;2022-11-27T05:55:38;24.17;;;9.27;;
70715;SDS011;59053;50.832;12.882;2022-11-27T05:58:04;22.30;;;8.10;;
70715;SDS011;59053;50.832;12.882;2022-11-27T06:06:41;21.48;;;7.63;;
70715;SDS011;59053;50.832;12.882;2022-11-27T06:09:06;20.20;;;8.00;;
70715;SDS011;59053;50.832;12.882;2022-11-27T06:11:38;19.73;;;7.67;;
70715;SDS011;59053;50.832;12.882;2022-11-27T06:14:16;23.33;;;7.90;;
70715;SDS011;59053;50.832;12.882;2022-11-27T06:19:31;25.02;;;10.48;;
70715;SDS011;59053;50.832;12.882;2022-11-27T06:24:53;25.58;;;9.15;;
70715;SDS011;59053;50.832;12.882;2022-11-27T06:27:19;21.10;;;8.10;;
70715;SDS011;59053;50.832;12.882;2022-11-27T06:29:44;23.00;;;8.67;;
70715;SDS011;59053;50.832;12.882;2022-11-27T06:32:09;19.50;;;7.90;;
70715;SDS011;59053;50.832;12.882;2022-11-27T06:37:35;19.75;;;7.90;;
70715;SDS011;59053;50.832;12.882;2022-11-27T06:40:00;21.43;;;7.53;;
70715;SDS011;59053;50.832;12.882;2022-11-27T06:42:29;18.00;;;7.23;;
70715;SDS011;59053;50.832;12.882;2022-11-27T06:44:54;22.67;;;8.18;;
70715;SDS011;59053;50.832;12.882;2022-11-27T06:47:20;19.17;;;8.07;;
70715;SDS011;59053;50.832;12.882;2022-11-27T06:49:45;21.03;;;8.00;;
70715;SDS011;59053;50.832;12.882;2022-11-27T06:52:10;19.92;;;7.28;;
70715;SDS011;59053;50.832;12.882;2022-11-27T06:54:36;22.77;;;7.82;;
70715;SDS011;59053;50.832;12.882;2022-11-27T06:57:01;20.67;;;7.28;;
70715;SDS011;59053;50.832;12.882;2022-11-27T06:59:26;20.60;;;7.85;;
70715;SDS011;59053;50.832;12.882;2022-11-27T07:01:51;20.00;;;7.33;;
70715;SDS011;59053;50.832;12.882;2022-11-27T07:04:17;20.40;;;7.43;;
70715;SDS011;59053;50.832;12.882;2022-11-27T07:06:42;16.80;;;7.07;;
70715;SDS011;59053;50.832;12.882;2022-11-27T07:09:08;18.20;;;6.93;;
70715;SDS011;59053;50.832;12.882;2022-11-27T07:11:34;20.65;;;7.40;;
70715;SDS011;59053;50.832;12.882;2022-11-27T07:14:00;24.20;;;8.13;;
70715;SDS011;59053;50.832;12.882;2022-11-27T07:16:26;20.48;;;7.30;;
70715;SDS011;59053;50.832;12.882;2022-11-27T07:18:53;16.95;;;6.95;;
70715;SDS011;59053;50.832;12.882;2022-11-27T07:21:18;21.83;;;8.30;;
70715;SDS011;59053;50.832;12.882;2022-11-27T07:23:44;17.90;;;7.23;;
70715;SDS011;59053;50.832;12.882;2022-11-27T07:26:11;20.02;;;7.35;;
70715;SDS011;59053;50.832;12.882;2022-11-27T07:28:36;18.07;;;7.13;;
70715;SDS011;59053;50.832;12.882;2022-11-27T07:31:02;22.10;;;7.38;;
70715;SDS011;59053;50.832;12.882;2022-11-27T07:33:27;20.57;;;7.50;;
70715;SDS011;59053;50.832;12.882;2022-11-27T07:36:00;21.73;;;7.27;;
70715;SDS011;59053;50.832;12.882;2022-11-27T07:38:25;18.67;;;7.15;;
70715;SDS011;59053;50.832;12.882;2022-11-27T07:40:50;19.90;;;7.20;;
70715;SDS011;59053;50.832;12.882;2022-11-27T07:43:16;17.37;;;7.00;;
70715;SDS011;59053;50.832;12.882;2022-11-27T07:45:41;17.98;;;7.13;;
70715;SDS011;59053;50.832;12.882;2022-11-27T07:48:06;19.30;;;7.07;;
70715;SDS011;59053;50.832;12.882;2022-11-27T07:50:31;20.53;;;7.30;;
70715;SDS011;59053;50.832;12.882;2022-11-27T07:52:57;20.70;;;7.17;;
70715;SDS011;59053;50.832;12.882;2022-11-27T07:55:22;16.77;;;7.33;;
70715;SDS011;59053;50.832;12.882;2022-11-27T07:57:47;21.23;;;7.83;;
70715;SDS011;59053;50.832;12.882;2022-11-27T08:00:13;21.67;;;8.17;;
70715;SDS011;59053;50.832;12.882;2022-11-27T08:02:38;20.73;;;7.73;;
70715;SDS011;59053;50.832;12.882;2022-11-27T08:05:03;23.27;;;7.95;;
70715;SDS011;59053;50.832;12.882;2022-11-27T08:07:29;22.02;;;8.57;;
70715;SDS011;59053;50.832;12.882;2022-11-27T08:09:55;19.67;;;8.47;;
70715;SDS011;59053;50.832;12.882;2022-11-27T08:15:12;20.95;;;8.75;;
70715;SDS011;59053;50.832;12.882;2022-11-27T08:17:40;21.17;;;9.38;;
70715;SDS011;59053;50.832;12.882;2022-11-27T08:20:05;26.07;;;9.83;;
70715;SDS011;59053;50.832;12.882;2022-11-27T08:22:31;23.60;;;9.43;;
70715;SDS011;59053;50.832;12.882;2022-11-27T08:24:56;24.13;;;8.83;;
70715;SDS011;59053;50.832;12.882;2022-11-27T08:27:21;24.47;;;10.17;;
70715;SDS011;59053;50.832;12.882;2022-11-27T08:29:47;24.17;;;9.57;;
70715;SDS011;59053;50.832;12.882;2022-11-27T08:32:12;25.98;;;10.25;;
70715;SDS011;59053;50.832;12.882;2022-11-27T08:34:38;30.73;;;9.17;;
70715;SDS011;59053;50.832;12.882;2022-11-27T08:37:06;29.10;;;10.60;;
70715;SDS011;59053;50.832;12.882;2022-11-27T08:39:32;23.30;;;10.30;;
70715;SDS011;59053;50.832;12.882;2022-11-27T08:41:57;26.87;;;10.33;;
70715;SDS011;59053;50.832;12.882;2022-11-27T08:44:23;25.00;;;9.13;;
70715;SDS011;59053;50.832;12.882;2022-11-27T08:46:48;24.77;;;9.63;;
70715;SDS011;59053;50.832;12.882;2022-11-27T08:49:13;24.17;;;9.70;;
70715;SDS011;59053;50.832;12.882;2022-11-27T08:58:08;21.55;;;9.00;;
70715;SDS011;59053;50.832;12.882;2022-11-27T09:00:36;23.75;;;9.15;;
70715;SDS011;59053;50.832;12.882;2022-11-27T09:03:04;22.80;;;8.90;;
70715;SDS011;59053;50.832;12.882;2022-11-27T09:05:40;27.50;;;11.27;;
70715;SDS011;59053;50.832;12.882;2022-11-27T09:08:13;25.13;;;11.32;;
70715;SDS011;59053;50.832;12.882;2022-11-27T09:10:51;27.07;;;11.40;;
70715;SDS011;59053;50.832;12.882;2022-11-27T09:13:58;30.15;;;10.45;;
70715;SDS011;59053;50.832;12.882;2022-11-27T09:16:50;23.55;;;9.43;;
70715;SDS011;59053;50.832;12.882;2022-11-27T09:22:52;29.63;;;11.43;;
70715;SDS011;59053;50.832;12.882;2022-11-27T09:26:00;23.90;;;9.43;;
70715;SDS011;59053;50.832;12.882;2022-11-27T09:28:40;22.70;;;8.85;;
70715;SDS011;59053;50.832;12.882;2022-11-27T09:31:23;20.50;;;7.90;;
70715;SDS011;59053;50.832;12.882;2022-11-27T09:33:48;21.33;;;8.63;;
70715;SDS011;59053;50.832;12.882;2022-11-27T09:36:15;19.23;;;8.50;;
70715;SDS011;59053;50.832;12.882;2022-11-27T09:38:53;23.00;;;10.32;;
70715;SDS011;59053;50.832;12.882;2022-11-27T09:43:51;17.67;;;7.97;;
70715;SDS011;59053;50.832;12.882;2022-11-27T09:46:24;18.20;;;8.05;;
70715;SDS011;59053;50.832;12.882;2022-11-27T09:48:53;18.33;;;7.50;;
70715;SDS011;59053;50.832;12.882;2022-11-27T09:51:24;17.13;;;7.60;;
70715;SDS011;59053;50.832;12.882;2022-11-27T09:53:57;17.05;;;7.80;;
70715;SDS011;59053;50.832;12.882;2022-11-27T09:59:35;18.73;;;7.90;;
70715;SDS011;59053;50.832;12.882;2022-11-27T10:02:08;18.35;;;7.57;;
70715;SDS011;59053;50.832;12.882;2022-11-27T10:04:39;15.70;;;6.63;;
70715;SDS011;59053;50.832;12.882;2022-11-27T10:07:20;15.13;;;6.43;;
70715;SDS011;59053;50.832;12.882;2022-11-27T10:10:00;12.77;;;6.00;;
70715;SDS011;59053;50.832;12.882;2022-11-27T10:18:01;13.57;;;5.30;;
70715;SDS011;59053;50.832;12.882;2022-11-27T10:29:36;13.80;;;6.10;;
70715;SDS011;59053;50.832;12.882;2022-11-27T10:32:13;17.55;;;6.30;;
70715;SDS011;59053;50.832;12.882;2022-11-27T10:34:40;18.58;;;7.15;;
70715;SDS011;59053;50.832;12.882;2022-11-27T10:37:11;16.85;;;6.95;;
70715;SDS011;59053;50.832;12.882;2022-11-27T10:39:40;14.65;;;6.40;;
70715;SDS011;59053;50.832;12.882;2022-11-27T10:42:10;18.23;;;6.60;;
70715;SDS011;59053;50.832;12.882;2022-11-27T10:44:45;17.92;;;6.70;;
70715;SDS011;59053;50.832;12.882;2022-11-27T10:47:12;13.73;;;6.38;;
70715;SDS011;59053;50.832;12.882;2022-11-27T10:49:39;18.77;;;7.00;;
70715;SDS011;59053;50.832;12.882;2022-11-27T10:52:04;17.23;;;6.23;;
70715;SDS011;59053;50.832;12.882;2022-11-27T10:54:32;16.33;;;6.20;;
70715;SDS011;59053;50.832;12.882;2022-11-27T10:59:31;11.85;;;5.53;;
70715;SDS011;59053;50.832;12.882;2022-11-27T11:01:57;14.02;;;6.30;;
70715;SDS011;59053;50.832;12.882;2022-11-27T11:04:25;15.25;;;6.18;;
70715;SDS011;59053;50.832;12.882;2022-11-27T11:06:51;13.60;;;5.68;;
70715;SDS011;59053;50.832;12.882;2022-11-27T11:09:17;15.70;;;6.80;;
70715;SDS011;59053;50.832;12.882;2022-11-27T11:11:43;13.55;;;5.90;;
70715;SDS011;59053;50.832;12.882;2022-11-27T11:16:43;15.75;;;5.65;;
70715;SDS011;59053;50.832;12.882;2022-11-27T11:21:46;19.55;;;6.05;;
70715;SDS011;59053;50.832;12.882;2022-11-27T11:24:12;14.10;;;5.53;;
70715;SDS011;59053;50.832;12.882;2022-11-27T11:26:58;12.93;;;5.55;;
70715;SDS011;59053;50.832;12.882;2022-11-27T11:29:32;15.17;;;5.73;;
70715;SDS011;59053;50.832;12.882;2022-11-27T11:32:02;14.73;;;5.47;;
70715;SDS011;59053;50.832;12.882;2022-11-27T11:34:29;12.32;;;5.28;;
70715;SDS011;59053;50.832;12.882;2022-11-27T11:36:56;16.27;;;5.75;;
70715;SDS011;59053;50.832;12.882;2022-11-27T11:39:25;12.23;;;5.10;;
70715;SDS011;59053;50.832;12.882;2022-11-27T11:47:26;13.32;;;5.28;;
70715;SDS011;59053;50.832;12.882;2022-11-27T11:55:34;12.15;;;4.88;;
70715;SDS011;59053;50.832;12.882;2022-11-27T12:00:46;12.83;;;5.27;;
70715;SDS011;59053;50.832;12.882;2022-11-27T12:08:27;12.27;;;5.55;;
70715;SDS011;59053;50.832;12.882;2022-11-27T12:16:14;13.68;;;5.03;;
70715;SDS011;59053;50.832;12.882;2022-11-27T12:26:11;12.50;;;5.68;;
70715;SDS011;59053;50.832;12.882;2022-11-27T12:34:00;10.85;;;5.07;;
70715;SDS011;59053;50.832;12.882;2022-11-27T12:42:00;12.73;;;5.00;;
70715;SDS011;59053;50.832;12.882;2022-11-27T12:46:55;11.73;;;5.40;;
70715;SDS011;59053;50.832;12.882;2022-11-27T12:49:43;12.80;;;5.22;;
70715;SDS011;59053;50.832;12.882;2022-11-27T12:52:21;15.85;;;4.57;;
70715;SDS011;59053;50.832;12.882;2022-11-27T12:55:04;12.02;;;4.07;;
70715;SDS011;59053;50.832;12.882;2022-11-27T12:57:43;10.77;;;4.40;;
70715;SDS011;59053;50.832;12.882;2022-11-27T13:00:27;10.07;;;3.90;;
70715;SDS011;59053;50.832;12.882;2022-11-27T13:05:50;10.13;;;3.80;;
70715;SDS011;59053;50.832;12.882;2022-11-27T13:08:24;10.63;;;3.97;;
70715;SDS011;59053;50.832;12.882;2022-11-27T13:10:54;11.90;;;3.90;;
70715;SDS011;59053;50.832;12.882;2022-11-27T13:13:25;10.43;;;3.78;;
70715;SDS011;59053;50.832;12.882;2022-11-27T13:21:21;8.10;;;3.28;;
70715;SDS011;59053;50.832;12.882;2022-11-27T13:23:48;10.07;;;3.43;;
70715;SDS011;59053;50.832;12.882;2022-11-27T13:26:14;8.70;;;3.05;;
70715;SDS011;59053;50.832;12.882;2022-11-27T13:31:07;9.17;;;3.27;;
70715;SDS011;59053;50.832;12.882;2022-11-27T13:33:39;8.82;;;3.30;;
70715;SDS011;59053;50.832;12.882;2022-11-27T13:36:05;10.50;;;3.23;;
70715;SDS011;59053;50.832;12.882;2022-11-27T13:38:32;6.63;;;3.10;;
70715;SDS011;59053;50.832;12.882;2022-11-27T13:41:00;7.45;;;3.03;;
70715;SDS011;59053;50.832;12.882;2022-11-27T13:43:39;9.18;;;3.15;;
70715;SDS011;59053;50.832;12.882;2022-11-27T13:46:06;9.05;;;3.22;;
70715;SDS011;59053;50.832;12.882;2022-11-27T13:48:34;9.63;;;3.80;;
70715;SDS011;59053;50.832;12.882;2022-11-27T13:51:00;8.52;;;3.30;;
70715;SDS011;59053;50.832;12.882;2022-11-27T13:53:32;10.40;;;3.20;;
70715;SDS011;59053;50.832;12.882;2022-11-27T13:55:58;8.82;;;3.22;;
70715;SDS011;59053;50.832;12.882;2022-11-27T13:58:30;9.73;;;3.53;;
70715;SDS011;59053;50.832;12.882;2022-11-27T14:00:56;7.67;;;3.00;;
70715;SDS011;59053;50.832;12.882;2022-11-27T14:05:47;8.83;;;3.20;;
70715;SDS011;59053;50.832;12.882;2022-11-27T14:08:47;10.73;;;3.50;;
70715;SDS011;59053;50.832;12.882;2022-11-27T14:11:08;66.68;;;17.98;;
70715;SDS011;59053;50.832;12.882;2022-11-27T14:13:44;14.77;;;5.27;;
70715;SDS011;59053;50.832;12.882;2022-11-27T14:16:32;22.27;;;7.32;;
70715;SDS011;59053;50.832;12.882;2022-11-27T14:19:19;21.65;;;6.68;;
70715;SDS011;59053;50.832;12.882;2022-11-27T14:21:45;27.45;;;8.27;;
70715;SDS011;59053;50.832;12.882;2022-11-27T14:27:17;56.30;;;18.83;;
70715;SDS011;59053;50.832;12.882;2022-11-27T14:29:43;23.10;;;8.13;;
70715;SDS011;59053;50.832;12.882;2022-11-27T14:32:10;10.85;;;4.80;;
70715;SDS011;59053;50.832;12.882;2022-11-27T14:34:36;13.17;;;4.70;;
70715;SDS011;59053;50.832;12.882;2022-11-27T14:37:01;8.20;;;3.57;;
70715;SDS011;59053;50.832;12.882;2022-11-27T14:39:30;12.53;;;4.70;;
70715;SDS011;59053;50.832;12.882;2022-11-27T14:41:56;15.67;;;5.80;;
70715;SDS011;59053;50.832;12.882;2022-11-27T14:44:22;12.13;;;3.90;;
70715;SDS011;59053;50.832;12.882;2022-11-27T14:46:47;11.43;;;3.80;;
70715;SDS011;59053;50.832;12.882;2022-11-27T14:49:19;9.97;;;3.77;;
70715;SDS011;59053;50.832;12.882;2022-11-27T14:51:45;13.07;;;3.83;;
70715;SDS011;59053;50.832;12.882;2022-11-27T14:54:12;8.85;;;3.70;;
70715;SDS011;59053;50.832;12.882;2022-11-27T14:56:41;10.15;;;3.47;;
70715;SDS011;59053;50.832;12.882;2022-11-27T15:02:39;10.20;;;3.70;;
70715;SDS011;59053;50.832;12.882;2022-11-27T15:05:04;9.43;;;3.75;;
70715;SDS011;59053;50.832;12.882;2022-11-27T15:07:30;9.63;;;3.53;;
70715;SDS011;59053;50.832;12.882;2022-11-27T15:09:56;9.02;;;3.60;;
70715;SDS011;59053;50.832;12.882;2022-11-27T15:12:26;13.10;;;4.10;;
70715;SDS011;59053;50.832;12.882;2022-11-27T15:18:34;9.35;;;3.85;;
70715;SDS011;59053;50.832;12.882;2022-11-27T15:21:01;9.23;;;3.50;;
70715;SDS011;59053;50.832;12.882;2022-11-27T15:23:32;11.23;;;3.72;;
70715;SDS011;59053;50.832;12.882;2022-11-27T15:28:36;9.63;;;4.07;;
70715;SDS011;59053;50.832;12.882;2022-11-27T15:36:42;13.50;;;4.43;;
70715;SDS011;59053;50.832;12.882;2022-11-27T15:39:20;11.20;;;4.32;;
70715;SDS011;59053;50.832;12.882;2022-11-27T15:41:50;14.63;;;4.70;;
70715;SDS011;59053;50.832;12.882;2022-11-27T15:44:15;13.43;;;4.57;;
70715;SDS011;59053;50.832;12.882;2022-11-27T15:46:41;12.93;;;4.50;;
70715;SDS011;59053;50.832;12.882;2022-11-27T15:49:10;10.70;;;4.10;;
70715;SDS011;59053;50.832;12.882;2022-11-27T15:51:36;10.10;;;4.20;;
70715;SDS011;59053;50.832;12.882;2022-11-27T15:54:02;14.90;;;4.70;;
70715;SDS011;59053;50.832;12.882;2022-11-27T15:56:30;13.20;;;4.63;;
70715;SDS011;59053;50.832;12.882;2022-11-27T15:58:55;12.18;;;4.80;;
70715;SDS011;59053;50.832;12.882;2022-11-27T16:01:21;12.37;;;4.97;;
70715;SDS011;59053;50.832;12.882;2022-11-27T16:03:46;14.88;;;5.18;;
70715;SDS011;59053;50.832;12.882;2022-11-27T16:06:12;14.33;;;5.00;;
70715;SDS011;59053;50.832;12.882;2022-11-27T16:15:09;14.18;;;5.13;;
70715;SDS011;59053;50.832;12.882;2022-11-27T16:17:34;13.13;;;5.23;;
70715;SDS011;59053;50.832;12.882;2022-11-27T16:20:00;13.40;;;5.07;;
70715;SDS011;59053;50.832;12.882;2022-11-27T16:22:25;14.87;;;5.47;;
70715;SDS011;59053;50.832;12.882;2022-11-27T16:27:58;13.20;;;5.53;;
70715;SDS011;59053;50.832;12.882;2022-11-27T16:30:24;15.47;;;5.10;;
70715;SDS011;59053;50.832;12.882;2022-11-27T16:32:51;14.47;;;5.60;;
70715;SDS011;59053;50.832;12.882;2022-11-27T16:38:04;16.63;;;6.20;;
70715;SDS011;59053;50.832;12.882;2022-11-27T16:43:28;17.75;;;6.55;;
70715;SDS011;59053;50.832;12.882;2022-11-27T16:46:02;16.67;;;6.50;;
70715;SDS011;59053;50.832;12.882;2022-11-27T16:48:28;22.17;;;8.00;;
70715;SDS011;59053;50.832;12.882;2022-11-27T16:51:00;20.43;;;7.10;;
70715;SDS011;59053;50.832;12.882;2022-11-27T16:53:29;24.67;;;7.95;;
70715;SDS011;59053;50.832;12.882;2022-11-27T16:55:54;18.47;;;6.83;;
70715;SDS011;59053;50.832;12.882;2022-11-27T16:58:20;19.67;;;6.97;;
70715;SDS011;59053;50.832;12.882;2022-11-27T17:00:46;15.93;;;6.18;;
70715;SDS011;59053;50.832;12.882;2022-11-27T17:03:32;16.47;;;6.40;;
70715;SDS011;59053;50.832;12.882;2022-11-27T17:22:21;42.03;;;15.32;;
70715;SDS011;59053;50.832;12.882;2022-11-27T17:24:46;47.67;;;16.63;;
70715;SDS011;59053;50.832;12.882;2022-11-27T17:27:13;28.60;;;11.10;;
70715;SDS011;59053;50.832;12.882;2022-11-27T17:29:38;20.93;;;7.50;;
70715;SDS011;59053;50.832;12.882;2022-11-27T17:32:04;19.20;;;7.57;;
70715;SDS011;59053;50.832;12.882;2022-11-27T17:37:54;20.83;;;8.52;;
70715;SDS011;59053;50.832;12.882;2022-11-27T17:40:24;22.45;;;8.73;;
70715;SDS011;59053;50.832;12.882;2022-11-27T17:42:49;19.10;;;8.23;;
70715;SDS011;59053;50.832;12.882;2022-11-27T17:45:15;18.57;;;7.90;;
70715;SDS011;59053;50.832;12.882;2022-11-27T17:47:44;17.45;;;7.00;;
70715;SDS011;59053;50.832;12.882;2022-11-27T17:50:10;17.83;;;7.07;;
70715;SDS011;59053;50.832;12.882;2022-11-27T17:52:36;16.92;;;7.38;;
70715;SDS011;59053;50.832;12.882;2022-11-27T17:55:01;18.08;;;7.32;;
70715;SDS011;59053;50.832;12.882;2022-11-27T17:57:29;14.90;;;6.30;;
70715;SDS011;59053;50.832;12.882;2022-11-27T17:59:55;20.02;;;6.78;;
70715;SDS011;59053;50.832;12.882;2022-11-27T18:02:20;19.87;;;7.70;;
70715;SDS011;59053;50.832;12.882;2022-11-27T18:04:53;16.02;;;6.57;;
70715;SDS011;59053;50.832;12.882;2022-11-27T18:07:30;21.10;;;7.30;;
70715;SDS011;59053;50.832;12.882;2022-11-27T18:09:57;17.05;;;6.97;;
70715;SDS011;59053;50.832;12.882;2022-11-27T18:12:25;17.42;;;7.50;;
70715;SDS011;59053;50.832;12.882;2022-11-27T18:34:42;16.70;;;6.00;;